createdAt,value
2018-09-10T00:00:21.797Z,78.89
2018-09-10T00:01:23.188Z,79.57
2018-09-10T00:02:24.570Z,79.28
2018-09-10T00:03:25.946Z,79.28
2018-09-10T00:04:27.332Z,79.28
2018-09-10T00:05:28.718Z,79.43
2018-09-10T00:06:30.114Z,79.37
2018-09-10T00:07:31.490Z,79.24
2018-09-10T00:08:32.865Z,79.62
2018-09-10T00:09:34.257Z,79.33
2018-09-10T00:10:35.630Z,80.10
2018-09-10T00:11:37.018Z,79.91
2018-09-10T00:12:38.402Z,79.91
2018-09-10T00:13:39.794Z,80.10
2018-09-10T00:14:41.185Z,80.38
2018-09-10T00:15:42.567Z,80.67
2018-09-10T00:16:43.951Z,80.58
2018-09-10T00:17:45.327Z,80.58
2018-09-10T00:18:46.711Z,80.48
2018-09-10T00:19:48.105Z,80.48
2018-09-10T00:20:49.478Z,80.48
2018-09-10T00:21:50.864Z,80.38
2018-09-10T00:22:52.261Z,80.96
2018-09-10T00:23:53.644Z,80.48
2018-09-10T00:24:55.027Z,80.87
2018-09-10T00:25:56.418Z,80.58
2018-09-10T00:26:57.806Z,80.58
2018-09-10T00:27:59.234Z,80.38
2018-09-10T00:29:00.618Z,80.96
2018-09-10T00:30:02.007Z,80.58
2018-09-10T00:31:03.387Z,80.48
2018-09-10T00:32:04.767Z,81.15
2018-09-10T00:33:06.156Z,80.96
2018-09-10T00:34:07.526Z,80.58
2018-09-10T00:35:08.913Z,80.67
2018-09-10T00:36:10.299Z,81.15
2018-09-10T00:37:11.699Z,80.77
2018-09-10T00:38:13.074Z,81.34
2018-09-10T00:39:14.464Z,81.63
2018-09-10T00:40:15.835Z,81.92
2018-09-10T00:41:17.231Z,82.01
2018-09-10T00:42:18.621Z,81.49
2018-09-10T00:43:20.000Z,81.78
2018-09-10T00:44:21.389Z,81.63
2018-09-10T00:45:22.768Z,82.17
2018-09-10T00:46:24.159Z,82.07
2018-09-10T00:47:25.535Z,82.45
2018-09-10T00:48:26.919Z,82.17
2018-09-10T00:49:28.311Z,82.64
2018-09-10T00:50:29.717Z,82.26
2018-09-10T00:51:31.112Z,82.74
2018-09-10T00:52:32.509Z,82.54
2018-09-10T00:53:33.893Z,83.03
2018-09-10T00:54:35.269Z,82.93
2018-09-10T00:55:36.659Z,83.12
2018-09-10T00:56:38.044Z,82.93
2018-09-10T00:57:39.426Z,82.93
2018-09-10T00:58:40.812Z,83.03
2018-09-10T00:59:42.196Z,82.64
2018-09-10T01:00:43.580Z,83.03
2018-09-10T01:01:44.965Z,83.69
2018-09-10T01:02:46.348Z,83.50
2018-09-10T01:03:47.727Z,83.40
2018-09-10T01:04:49.064Z,83.31
2018-09-10T01:05:50.457Z,84.17
2018-09-10T01:06:51.840Z,82.93
2018-09-10T01:07:53.220Z,83.31
2018-09-10T01:08:54.604Z,83.69
2018-09-10T01:09:55.981Z,84.42
2018-09-10T01:10:57.362Z,84.23
2018-09-10T01:11:58.747Z,83.84
2018-09-10T01:13:00.128Z,83.94
2018-09-10T01:14:01.507Z,84.17
2018-09-10T01:15:02.887Z,84.03
2018-09-10T01:16:04.275Z,84.27
2018-09-10T01:17:05.655Z,84.42
2018-09-10T01:18:07.036Z,84.36
2018-09-10T01:19:08.413Z,84.27
2018-09-10T01:20:09.804Z,83.79
2018-09-10T01:21:11.196Z,83.50
2018-09-10T01:22:12.574Z,83.79
2018-09-10T01:23:13.956Z,83.79
2018-09-10T01:24:15.336Z,83.69
2018-09-10T01:25:16.718Z,84.03
2018-09-10T01:26:18.108Z,83.94
2018-09-10T01:27:19.484Z,83.84
2018-09-10T01:28:20.861Z,84.23
2018-09-10T01:29:22.249Z,84.13
2018-09-10T01:30:23.620Z,84.13
2018-09-10T01:31:25.007Z,83.75
2018-09-10T01:32:26.387Z,84.13
2018-09-10T01:33:27.775Z,83.94
2018-09-10T01:34:29.163Z,83.94
2018-09-10T01:35:30.535Z,84.03
2018-09-10T01:36:31.932Z,84.32
2018-09-10T01:37:33.316Z,84.52
2018-09-10T01:38:34.692Z,84.61
2018-09-10T01:39:36.086Z,84.32
2018-09-10T01:40:37.452Z,84.23
2018-09-10T01:41:38.831Z,84.52
2018-09-10T01:42:40.215Z,84.42
2018-09-10T01:43:41.593Z,84.52
2018-09-10T01:44:42.981Z,84.61
2018-09-10T01:45:44.369Z,84.99
2018-09-10T01:46:45.741Z,85.28
2018-09-10T01:47:47.121Z,84.89
2018-09-10T01:48:48.509Z,84.99
2018-09-10T01:49:49.889Z,84.99
2018-09-10T01:50:51.275Z,85.09
2018-09-10T01:51:52.652Z,84.89
2018-09-10T01:52:54.035Z,84.99
2018-09-10T01:53:55.425Z,84.99
2018-09-10T01:54:56.799Z,84.80
2018-09-10T01:55:58.184Z,85.66
2018-09-10T01:56:59.571Z,85.66
2018-09-10T01:58:00.951Z,85.42
2018-09-10T01:59:02.328Z,85.71
2018-09-10T02:00:03.714Z,85.94
2018-09-10T02:01:05.097Z,86.00
2018-09-10T02:02:06.483Z,86.47
2018-09-10T02:03:07.869Z,86.61
2018-09-10T02:04:09.252Z,86.61
2018-09-10T02:05:10.637Z,86.80
2018-09-10T02:06:12.018Z,86.52
2018-09-10T02:07:13.394Z,86.67
2018-09-10T02:08:14.777Z,86.76
2018-09-10T02:09:16.160Z,86.76
2018-09-10T02:10:17.541Z,86.67
2018-09-10T02:11:18.929Z,86.90
2018-09-10T02:12:20.321Z,87.38
2018-09-10T02:13:21.696Z,87.86
2018-09-10T02:14:23.088Z,87.24
2018-09-10T02:15:24.474Z,87.29
2018-09-10T02:16:25.850Z,87.53
2018-09-10T02:17:27.233Z,87.09
2018-09-10T02:18:28.616Z,87.19
2018-09-10T02:19:29.998Z,87.09
2018-09-10T02:20:31.382Z,86.90
2018-09-10T02:21:32.760Z,87.09
2018-09-10T02:22:34.138Z,86.90
2018-09-10T02:23:35.572Z,87.38
2018-09-10T02:24:36.911Z,87.38
2018-09-10T02:25:38.279Z,87.19
2018-09-10T02:26:39.668Z,87.57
2018-09-10T02:27:41.053Z,87.00
2018-09-10T02:28:42.424Z,87.48
2018-09-10T02:29:43.803Z,87.19
2018-09-10T02:30:45.182Z,87.19
2018-09-10T02:31:46.568Z,87.19
2018-09-10T02:32:47.953Z,87.29
2018-09-10T02:33:49.337Z,87.19
2018-09-10T02:34:50.714Z,87.29
2018-09-10T02:35:52.089Z,87.66
2018-09-10T02:36:53.466Z,87.09
2018-09-10T02:37:54.859Z,86.90
2018-09-10T02:38:56.239Z,86.71
2018-09-10T02:39:57.612Z,87.00
2018-09-10T02:40:58.999Z,86.90
2018-09-10T02:42:00.388Z,86.52
2018-09-10T02:43:01.762Z,87.29
2018-09-10T02:44:03.146Z,87.48
2018-09-10T02:45:04.540Z,87.38
2018-09-10T02:46:05.916Z,87.38
2018-09-10T02:47:07.307Z,87.09
2018-09-10T02:48:08.690Z,87.29
2018-09-10T02:49:10.080Z,86.90
2018-09-10T02:50:11.459Z,86.71
2018-09-10T02:51:12.839Z,86.33
2018-09-10T02:52:14.225Z,86.61
2018-09-10T02:53:15.601Z,86.71
2018-09-10T02:54:16.997Z,86.71
2018-09-10T02:55:18.515Z,87.00
2018-09-10T02:56:19.755Z,87.00
2018-09-10T02:57:21.142Z,86.90
2018-09-10T02:58:22.527Z,86.61
2018-09-10T02:59:23.913Z,87.29
2018-09-10T03:00:25.302Z,87.29
2018-09-10T03:01:26.671Z,87.00
2018-09-10T03:02:28.055Z,86.90
2018-09-10T03:03:29.437Z,86.61
2018-09-10T03:04:30.822Z,86.80
2018-09-10T03:05:32.206Z,87.48
2018-09-10T03:06:33.588Z,87.38
2018-09-10T03:07:34.964Z,87.19
2018-09-10T03:08:36.358Z,87.57
2018-09-10T03:09:37.746Z,87.76
2018-09-10T03:10:39.118Z,87.48
2018-09-10T03:11:40.498Z,87.86
2018-09-10T03:12:41.889Z,87.95
2018-09-10T03:13:43.272Z,87.95
2018-09-10T03:14:44.646Z,87.57
2018-09-10T03:15:46.029Z,87.29
2018-09-10T03:16:47.406Z,87.48
2018-09-10T03:17:48.865Z,87.76
2018-09-10T03:18:50.128Z,87.48
2018-09-10T03:19:51.517Z,87.66
2018-09-10T03:20:52.904Z,87.29
2018-09-10T03:21:54.283Z,87.48
2018-09-10T03:22:55.660Z,88.05
2018-09-10T03:23:57.097Z,88.34
2018-09-10T03:24:58.422Z,88.24
2018-09-10T03:25:59.813Z,88.34
2018-09-10T03:27:01.195Z,88.24
2018-09-10T03:28:02.568Z,88.43
2018-09-10T03:29:03.952Z,89.01
2018-09-10T03:30:05.331Z,88.43
2018-09-10T03:31:06.715Z,88.91
2018-09-10T03:32:08.103Z,89.20
2018-09-10T03:33:09.474Z,89.01
2018-09-10T03:34:10.857Z,89.20
2018-09-10T03:35:12.239Z,89.20
2018-09-10T03:36:13.626Z,89.77
2018-09-10T03:37:15.020Z,89.29
2018-09-10T03:38:16.406Z,89.67
2018-09-10T03:39:17.786Z,89.67
2018-09-10T03:40:19.166Z,89.87
2018-09-10T03:41:20.555Z,89.67
2018-09-10T03:42:21.934Z,89.67
2018-09-10T03:43:23.318Z,89.87
2018-09-10T03:44:24.696Z,89.67
2018-09-10T03:45:26.079Z,89.96
2018-09-10T03:46:27.458Z,89.87
2018-09-10T03:47:28.910Z,89.87
2018-09-10T03:48:30.184Z,89.39
2018-09-10T03:49:31.566Z,89.29
2018-09-10T03:50:32.943Z,89.39
2018-09-10T03:51:34.324Z,89.87
2018-09-10T03:52:35.711Z,89.39
2018-09-10T03:53:37.085Z,89.20
2018-09-10T03:54:38.475Z,88.72
2018-09-10T03:55:39.860Z,89.10
2018-09-10T03:56:41.243Z,89.20
2018-09-10T03:57:42.621Z,88.91
2018-09-10T03:58:44.002Z,88.81
2018-09-10T03:59:45.379Z,88.91
2018-09-10T04:00:46.764Z,88.34
2018-09-10T04:01:48.145Z,88.43
2018-09-10T04:02:49.527Z,88.34
2018-09-10T04:03:50.919Z,88.34
2018-09-10T04:04:52.295Z,88.34
2018-09-10T04:05:53.678Z,88.24
2018-09-10T04:06:55.061Z,88.15
2018-09-10T04:07:56.447Z,88.34
2018-09-10T04:08:57.829Z,88.53
2018-09-10T04:09:59.223Z,88.72
2018-09-10T04:11:00.602Z,88.43
2018-09-10T04:12:01.984Z,88.91
2018-09-10T04:13:03.368Z,88.81
2018-09-10T04:14:04.747Z,88.81
2018-09-10T04:15:06.125Z,88.81
2018-09-10T04:16:07.505Z,89.20
2018-09-10T04:17:08.958Z,88.43
2018-09-10T04:18:10.242Z,88.81
2018-09-10T04:19:11.618Z,88.91
2018-09-10T04:20:13.000Z,89.01
2018-09-10T04:21:14.376Z,88.53
2018-09-10T04:22:15.756Z,88.62
2018-09-10T04:23:17.141Z,88.72
2018-09-10T04:24:18.525Z,89.20
2018-09-10T04:25:19.909Z,89.20
2018-09-10T04:26:21.441Z,88.72
2018-09-10T04:27:22.789Z,88.34
2018-09-10T04:28:24.175Z,88.34
2018-09-10T04:29:25.560Z,88.62
2018-09-10T04:30:26.949Z,89.10
2018-09-10T04:31:28.335Z,89.20
2018-09-10T04:32:29.723Z,88.72
2018-09-10T04:33:31.109Z,89.01
2018-09-10T04:34:32.495Z,88.81
2018-09-10T04:35:33.877Z,89.20
2018-09-10T04:36:35.262Z,89.10
2018-09-10T04:37:36.646Z,89.10
2018-09-10T04:38:38.033Z,89.01
2018-09-10T04:39:39.459Z,89.20
2018-09-10T04:40:40.805Z,89.20
2018-09-10T04:41:42.181Z,89.10
2018-09-10T04:42:43.566Z,88.91
2018-09-10T04:43:44.944Z,89.20
2018-09-10T04:44:46.326Z,88.81
2018-09-10T04:45:47.719Z,89.20
2018-09-10T04:46:49.108Z,88.91
2018-09-10T04:47:50.477Z,89.20
2018-09-10T04:48:51.873Z,89.20
2018-09-10T04:49:53.299Z,89.20
2018-09-10T04:50:54.597Z,89.01
2018-09-10T04:51:55.984Z,89.01
2018-09-10T04:52:57.371Z,89.01
2018-09-10T04:53:58.753Z,88.91
2018-09-10T04:55:00.138Z,88.91
2018-09-10T04:56:01.521Z,89.10
2018-09-10T04:57:02.903Z,89.10
2018-09-10T04:58:04.334Z,89.20
2018-09-10T04:59:05.697Z,88.53
2018-09-10T05:00:07.073Z,88.43
2018-09-10T05:01:08.464Z,89.01
2018-09-10T05:02:09.849Z,88.91
2018-09-10T05:03:11.238Z,89.20
2018-09-10T05:04:12.623Z,88.91
2018-09-10T05:05:14.010Z,88.91
2018-09-10T05:06:15.398Z,89.39
2018-09-10T05:07:16.790Z,89.29
2018-09-10T05:08:18.168Z,89.29
2018-09-10T05:09:19.558Z,89.10
2018-09-10T05:10:20.939Z,89.29
2018-09-10T05:11:22.325Z,89.39
2018-09-10T05:12:23.718Z,89.01
2018-09-10T05:13:25.097Z,89.10
2018-09-10T05:14:26.479Z,89.01
2018-09-10T05:15:27.875Z,89.39
2018-09-10T05:16:29.258Z,88.81
2018-09-10T05:17:30.629Z,89.01
2018-09-10T05:18:32.027Z,89.10
2018-09-10T05:19:33.419Z,88.91
2018-09-10T05:20:34.816Z,88.91
2018-09-10T05:21:36.200Z,89.10
2018-09-10T05:22:37.594Z,89.01
2018-09-10T05:23:38.975Z,89.01
2018-09-10T05:24:40.364Z,88.72
2018-09-10T05:25:41.743Z,88.72
2018-09-10T05:26:43.127Z,89.10
2018-09-10T05:27:44.520Z,89.48
2018-09-10T05:28:45.910Z,89.39
2018-09-10T05:29:47.288Z,89.58
2018-09-10T05:30:48.677Z,89.77
2018-09-10T05:31:50.084Z,89.58
2018-09-10T05:32:51.447Z,89.39
2018-09-10T05:33:52.831Z,89.67
2018-09-10T05:34:54.333Z,89.82
2018-09-10T05:35:55.718Z,90.34
2018-09-10T05:36:57.104Z,90.01
2018-09-10T05:37:58.499Z,90.16
2018-09-10T05:38:59.875Z,90.16
2018-09-10T05:40:01.262Z,90.16
2018-09-10T05:41:02.651Z,89.77
2018-09-10T05:42:04.043Z,89.67
2018-09-10T05:43:05.420Z,90.06
2018-09-10T05:44:06.813Z,89.67
2018-09-10T05:45:08.206Z,89.77
2018-09-10T05:46:09.595Z,89.77
2018-09-10T05:47:11.055Z,89.58
2018-09-10T05:48:12.442Z,89.48
2018-09-10T05:49:13.826Z,89.77
2018-09-10T05:50:15.268Z,89.20
2018-09-10T05:51:16.658Z,89.20
2018-09-10T05:52:18.053Z,89.10
2018-09-10T05:53:19.478Z,89.20
2018-09-10T05:54:20.791Z,89.58
2018-09-10T05:55:22.250Z,89.96
2018-09-10T05:56:23.586Z,89.77
2018-09-10T05:57:24.979Z,90.16
2018-09-10T05:58:26.366Z,89.77
2018-09-10T05:59:27.759Z,89.58
2018-09-10T06:00:29.150Z,89.29
2018-09-10T06:01:30.527Z,89.20
2018-09-10T06:02:31.921Z,89.10
2018-09-10T06:03:33.326Z,89.10
2018-09-10T06:04:34.703Z,88.95
2018-09-10T06:05:36.099Z,88.95
2018-09-10T06:06:37.487Z,88.57
2018-09-10T06:07:38.875Z,88.38
2018-09-10T06:08:40.281Z,88.48
2018-09-10T06:09:41.646Z,88.48
2018-09-10T06:10:43.927Z,88.57
2018-09-10T06:11:44.388Z,88.38
2018-09-10T06:12:45.769Z,88.48
2018-09-10T06:13:47.166Z,88.86
2018-09-10T06:14:48.546Z,88.29
2018-09-10T06:15:49.936Z,88.09
2018-09-10T06:16:51.413Z,88.67
2018-09-10T06:17:52.720Z,88.00
2018-09-10T06:18:54.105Z,87.66
2018-09-10T06:19:55.489Z,87.56
2018-09-10T06:20:56.880Z,87.56
2018-09-10T06:21:58.276Z,87.08
2018-09-10T06:22:59.663Z,87.37
2018-09-10T06:24:01.050Z,87.27
2018-09-10T06:25:05.168Z,86.61
2018-09-10T06:26:06.534Z,86.51
2018-09-10T06:27:07.921Z,86.22
2018-09-10T06:28:09.309Z,86.04
2018-09-10T06:29:10.698Z,85.50
2018-09-10T06:30:12.148Z,85.12
2018-09-10T06:31:13.514Z,84.74
2018-09-10T06:32:14.876Z,84.45
2018-09-10T06:33:16.276Z,84.35
2018-09-10T06:34:17.752Z,83.92
2018-09-10T06:35:19.041Z,83.25
2018-09-10T06:36:21.090Z,82.09
2018-09-10T06:37:22.469Z,82.00
2018-09-10T06:38:23.873Z,82.09
2018-09-10T06:39:25.259Z,81.56
2018-09-10T06:40:26.708Z,81.46
2018-09-10T06:41:28.080Z,80.51
2018-09-10T06:42:29.461Z,80.07
2018-09-10T06:43:30.858Z,79.01
2018-09-10T06:44:32.257Z,78.34
2018-09-10T06:45:33.655Z,78.05
2018-09-10T06:46:35.039Z,77.48
2018-09-10T06:47:36.530Z,77.13
2018-09-10T06:48:37.892Z,76.65
2018-09-10T06:49:39.291Z,76.65
2018-09-10T06:50:40.721Z,76.84
2018-09-10T06:51:42.135Z,76.75
2018-09-10T06:52:43.538Z,77.04
2018-09-10T06:53:44.946Z,76.75
2018-09-10T06:54:46.336Z,76.56
2018-09-10T06:55:47.805Z,76.75
2018-09-10T06:56:49.186Z,75.98
2018-09-10T06:57:50.649Z,75.98
2018-09-10T06:58:52.045Z,76.07
2018-09-10T06:59:53.444Z,75.50
2018-09-10T07:00:54.840Z,76.17
2018-09-10T07:01:56.235Z,76.27
2018-09-10T07:02:57.629Z,76.31
2018-09-10T07:03:59.025Z,76.02
2018-09-10T07:05:00.428Z,75.06
2018-09-10T07:06:01.840Z,74.43
2018-09-10T07:07:03.442Z,73.94
2018-09-10T07:08:04.858Z,72.60
2018-09-10T07:09:06.258Z,72.89
2018-09-10T07:10:07.646Z,72.54
2018-09-10T07:11:09.060Z,72.16
2018-09-10T07:12:10.443Z,72.16
2018-09-10T07:13:11.874Z,71.71
2018-09-10T07:14:13.226Z,70.46
2018-09-10T07:15:14.587Z,70.07
2018-09-10T07:16:15.974Z,70.65
2018-09-10T07:17:17.376Z,70.56
2018-09-10T07:18:18.771Z,70.56
2018-09-10T07:19:20.166Z,70.75
2018-09-10T07:20:21.559Z,69.60
2018-09-10T07:21:22.944Z,69.15
2018-09-10T07:22:24.336Z,69.12
2018-09-10T07:23:25.733Z,68.57
2018-09-10T07:24:27.134Z,68.38
2018-09-10T07:25:28.541Z,68.09
2018-09-10T07:26:29.935Z,69.06
2018-09-10T07:27:31.313Z,67.99
2018-09-10T07:28:32.719Z,68.67
2018-09-10T07:29:34.119Z,67.71
2018-09-10T07:30:35.497Z,67.90
2018-09-10T07:31:36.908Z,67.93
2018-09-10T07:32:38.308Z,67.32
2018-09-10T07:33:39.728Z,66.97
2018-09-10T07:34:41.158Z,67.83
2018-09-10T07:35:42.488Z,67.07
2018-09-10T07:36:43.876Z,67.74
2018-09-10T07:37:45.269Z,67.16
2018-09-10T07:38:46.662Z,67.16
2018-09-10T07:39:48.058Z,67.07
2018-09-10T07:40:49.460Z,66.20
2018-09-10T07:41:50.860Z,66.30
2018-09-10T07:42:52.253Z,65.81
2018-09-10T07:43:53.750Z,65.37
2018-09-10T07:44:55.045Z,64.89
2018-09-10T07:45:56.449Z,65.17
2018-09-10T07:46:57.837Z,64.69
2018-09-10T07:47:59.233Z,65.46
2018-09-10T07:49:00.712Z,64.89
2018-09-10T07:50:01.993Z,65.08
2018-09-10T07:51:03.392Z,65.37
2018-09-10T07:52:04.792Z,65.17
2018-09-10T07:53:06.187Z,64.53
2018-09-10T07:54:07.604Z,64.43
2018-09-10T07:55:08.994Z,63.67
2018-09-10T07:56:10.396Z,64.15
2018-09-10T07:57:11.787Z,63.12
2018-09-10T07:58:13.185Z,62.73
2018-09-10T07:59:14.686Z,62.63
2018-09-10T08:00:16.079Z,63.02
2018-09-10T08:01:17.585Z,62.63
2018-09-10T08:02:19.971Z,63.06
2018-09-10T08:03:21.400Z,62.09
2018-09-10T08:04:22.822Z,61.61
2018-09-10T08:05:24.213Z,61.22
2018-09-10T08:06:25.615Z,61.41
2018-09-10T08:07:27.016Z,60.74
2018-09-10T08:08:28.415Z,60.83
2018-09-10T08:09:29.860Z,60.48
2018-09-10T08:10:31.236Z,60.93
2018-09-10T08:11:32.720Z,60.83
2018-09-10T08:12:34.119Z,61.32
2018-09-10T08:13:35.515Z,61.22
2018-09-10T08:14:36.922Z,61.25
2018-09-10T08:15:38.314Z,61.44
2018-09-10T08:16:39.778Z,61.16
2018-09-10T08:17:41.107Z,60.68
2018-09-10T08:18:42.500Z,61.25
2018-09-10T08:19:43.921Z,60.77
2018-09-10T08:20:45.332Z,60.38
2018-09-10T08:21:46.744Z,60.58
2018-09-10T08:22:48.144Z,60.99
2018-09-10T08:23:49.541Z,60.80
2018-09-10T08:24:50.939Z,60.13
2018-09-10T08:25:52.335Z,60.89
2018-09-10T08:26:53.732Z,60.71
2018-09-10T08:27:55.142Z,60.80
2018-09-10T08:28:56.572Z,60.13
2018-09-10T08:29:57.939Z,60.22
2018-09-10T08:30:59.339Z,60.22
2018-09-10T08:32:00.872Z,60.71
2018-09-10T08:33:02.333Z,60.51
2018-09-10T08:34:03.724Z,60.13
2018-09-10T08:35:05.115Z,59.83
2018-09-10T08:36:06.516Z,59.74
2018-09-10T08:37:07.910Z,59.74
2018-09-10T08:38:09.309Z,58.87
2018-09-10T08:39:10.691Z,58.87
2018-09-10T08:40:12.126Z,58.97
2018-09-10T08:41:13.522Z,59.16
2018-09-10T08:42:14.959Z,58.29
2018-09-10T08:43:16.349Z,57.90
2018-09-10T08:44:17.750Z,58.00
2018-09-10T08:45:19.158Z,58.58
2018-09-10T08:46:20.561Z,59.16
2018-09-10T08:47:21.948Z,59.19
2018-09-10T08:48:23.371Z,59.09
2018-09-10T08:49:24.689Z,59.77
2018-09-10T08:50:26.117Z,59.00
2018-09-10T08:51:27.485Z,58.03
2018-09-10T08:52:28.886Z,57.16
2018-09-10T08:53:30.270Z,56.68
2018-09-10T08:54:31.902Z,57.26
2018-09-10T08:55:33.101Z,57.26
2018-09-10T08:56:34.404Z,57.45
2018-09-10T08:57:35.805Z,58.12
2018-09-10T08:58:37.197Z,57.09
2018-09-10T08:59:38.592Z,56.77
2018-09-10T09:00:39.982Z,56.48
2018-09-10T09:01:41.385Z,56.39
2018-09-10T09:02:42.844Z,56.48
2018-09-10T09:03:44.238Z,56.68
2018-09-10T09:04:45.628Z,56.68
2018-09-10T09:05:47.082Z,57.54
2018-09-10T09:06:48.425Z,56.48
2018-09-10T09:07:49.848Z,56.87
2018-09-10T09:08:51.214Z,56.96
2018-09-10T09:09:52.604Z,57.74
2018-09-10T09:10:53.997Z,57.35
2018-09-10T09:11:55.397Z,57.45
2018-09-10T09:12:56.787Z,57.45
2018-09-10T09:13:58.218Z,58.12
2018-09-10T09:14:59.609Z,58.03
2018-09-10T09:16:01.007Z,57.74
2018-09-10T09:17:02.393Z,57.84
2018-09-10T09:18:03.802Z,57.84
2018-09-10T09:19:05.249Z,57.35
2018-09-10T09:20:06.634Z,57.54
2018-09-10T09:21:08.041Z,57.84
2018-09-10T09:22:10.091Z,58.03
2018-09-10T09:23:11.531Z,58.03
2018-09-10T09:24:12.877Z,57.48
2018-09-10T09:25:14.307Z,57.74
2018-09-10T09:26:15.675Z,58.32
2018-09-10T09:27:17.068Z,58.03
2018-09-10T09:28:18.489Z,58.03
2018-09-10T09:29:19.878Z,58.15
2018-09-10T09:30:21.300Z,57.54
2018-09-10T09:31:22.674Z,56.87
2018-09-10T09:32:24.064Z,56.22
2018-09-10T09:33:25.462Z,56.22
2018-09-10T09:34:26.857Z,55.74
2018-09-10T09:35:28.276Z,56.03
2018-09-10T09:36:29.683Z,55.45
2018-09-10T09:37:31.065Z,55.93
2018-09-10T09:38:32.480Z,55.55
2018-09-10T09:39:33.859Z,55.55
2018-09-10T09:40:35.253Z,55.55
2018-09-10T09:41:36.640Z,55.74
2018-09-10T09:42:38.043Z,55.67
2018-09-10T09:43:39.436Z,55.35
2018-09-10T09:44:40.828Z,54.90
2018-09-10T09:45:42.222Z,54.71
2018-09-10T09:46:43.636Z,54.71
2018-09-10T09:47:45.029Z,54.71
2018-09-10T09:48:46.420Z,54.90
2018-09-10T09:49:47.822Z,55.09
2018-09-10T09:50:49.214Z,53.74
2018-09-10T09:51:50.608Z,54.22
2018-09-10T09:52:52.006Z,54.99
2018-09-10T09:53:53.408Z,53.45
2018-09-10T09:54:54.800Z,54.51
2018-09-10T09:55:56.196Z,54.71
2018-09-10T09:56:57.594Z,55.09
2018-09-10T09:57:58.990Z,55.19
2018-09-10T09:59:00.383Z,54.99
2018-09-10T10:00:01.789Z,55.09
2018-09-10T10:01:03.181Z,55.57
2018-09-10T10:02:04.586Z,55.77
2018-09-10T10:03:05.981Z,55.38
2018-09-10T10:04:07.445Z,55.09
2018-09-10T10:05:08.765Z,55.29
2018-09-10T10:06:10.167Z,55.67
2018-09-10T10:07:11.554Z,55.77
2018-09-10T10:08:12.954Z,55.67
2018-09-10T10:09:14.351Z,55.77
2018-09-10T10:10:15.769Z,54.90
2018-09-10T10:11:17.174Z,55.09
2018-09-10T10:12:18.513Z,54.80
2018-09-10T10:13:19.895Z,55.57
2018-09-10T10:14:21.300Z,55.77
2018-09-10T10:15:22.691Z,55.19
2018-09-10T10:16:24.100Z,54.97
2018-09-10T10:17:25.484Z,55.74
2018-09-10T10:18:26.884Z,55.45
2018-09-10T10:19:28.286Z,55.65
2018-09-10T10:20:29.690Z,55.93
2018-09-10T10:21:31.090Z,55.74
2018-09-10T10:22:32.486Z,55.93
2018-09-10T10:23:33.886Z,54.87
2018-09-10T10:24:35.303Z,55.45
2018-09-10T10:25:36.692Z,55.77
2018-09-10T10:26:38.110Z,55.77
2018-09-10T10:27:39.507Z,55.47
2018-09-10T10:28:40.910Z,55.09
2018-09-10T10:29:42.297Z,54.71
2018-09-10T10:30:43.704Z,54.51
2018-09-10T10:31:45.092Z,54.99
2018-09-10T10:32:46.485Z,54.80
2018-09-10T10:33:47.877Z,54.35
2018-09-10T10:34:49.270Z,54.44
2018-09-10T10:35:50.664Z,53.96
2018-09-10T10:36:52.060Z,54.44
2018-09-10T10:37:53.465Z,54.35
2018-09-10T10:38:54.853Z,54.35
2018-09-10T10:39:56.244Z,54.15
2018-09-10T10:40:57.666Z,54.05
2018-09-10T10:41:59.062Z,53.38
2018-09-10T10:43:00.463Z,51.93
2018-09-10T10:44:01.853Z,52.02
2018-09-10T10:45:03.268Z,52.22
2018-09-10T10:46:04.648Z,52.12
2018-09-10T10:47:06.042Z,51.28
2018-09-10T10:48:07.434Z,49.82
2018-09-10T10:49:08.834Z,49.34
2018-09-10T10:50:10.238Z,50.02
2018-09-10T10:51:11.636Z,49.63
2018-09-10T10:52:13.030Z,49.54
2018-09-10T10:53:14.443Z,50.60
2018-09-10T10:54:15.838Z,49.34
2018-09-10T10:55:17.233Z,49.44
2018-09-10T10:56:18.659Z,49.73
2018-09-10T10:57:20.056Z,49.44
2018-09-10T10:58:21.460Z,49.05
2018-09-10T10:59:22.891Z,49.24
2018-09-10T11:00:25.231Z,49.24
2018-09-10T11:01:26.635Z,48.18
2018-09-10T11:02:28.035Z,49.24
2018-09-10T11:03:29.439Z,49.92
2018-09-10T11:04:30.832Z,49.82
2018-09-10T11:05:32.230Z,49.63
2018-09-10T11:06:33.635Z,49.15
2018-09-10T11:07:35.041Z,49.24
2018-09-10T11:08:36.440Z,50.02
2018-09-10T11:09:37.861Z,49.63
2018-09-10T11:10:39.255Z,49.82
2018-09-10T11:11:40.668Z,50.40
2018-09-10T11:12:42.066Z,50.40
2018-09-10T11:13:43.469Z,50.89
2018-09-10T11:14:44.879Z,50.40
2018-09-10T11:15:46.285Z,50.89
2018-09-10T11:16:47.718Z,50.40
2018-09-10T11:17:49.025Z,50.60
2018-09-10T11:18:50.449Z,50.79
2018-09-10T11:19:51.848Z,50.79
2018-09-10T11:20:53.244Z,50.98
2018-09-10T11:21:54.620Z,51.18
2018-09-10T11:22:56.026Z,50.67
2018-09-10T11:23:57.437Z,51.25
2018-09-10T11:24:58.825Z,51.28
2018-09-10T11:26:00.251Z,51.08
2018-09-10T11:27:01.644Z,51.28
2018-09-10T11:28:03.041Z,51.47
2018-09-10T11:29:04.439Z,51.28
2018-09-10T11:30:05.831Z,50.89
2018-09-10T11:31:07.237Z,51.56
2018-09-10T11:32:08.630Z,51.28
2018-09-10T11:33:10.038Z,51.25
2018-09-10T11:34:11.458Z,51.37
2018-09-10T11:35:12.863Z,51.76
2018-09-10T11:36:14.238Z,51.83
2018-09-10T11:37:15.656Z,52.12
2018-09-10T11:38:17.079Z,52.51
2018-09-10T11:39:18.455Z,52.70
2018-09-10T11:40:19.859Z,52.51
2018-09-10T11:41:21.253Z,51.93
2018-09-10T11:42:22.656Z,52.89
2018-09-10T11:43:24.046Z,53.28
2018-09-10T11:44:25.454Z,53.38
2018-09-10T11:45:26.865Z,53.38
2018-09-10T11:46:28.257Z,52.99
2018-09-10T11:47:29.646Z,53.38
2018-09-10T11:48:31.063Z,52.89
2018-09-10T11:49:32.450Z,53.35
2018-09-10T11:50:33.843Z,53.47
2018-09-10T11:51:35.237Z,53.47
2018-09-10T11:52:36.625Z,53.45
2018-09-10T11:53:38.026Z,53.09
2018-09-10T11:54:39.446Z,53.47
2018-09-10T11:55:40.898Z,53.57
2018-09-10T11:56:42.876Z,53.47
2018-09-10T11:57:44.285Z,53.28
2018-09-10T11:58:45.665Z,53.77
2018-09-10T11:59:47.080Z,54.25
2018-09-10T12:00:48.474Z,53.57
2018-09-10T12:01:49.973Z,53.28
2018-09-10T12:02:51.287Z,53.57
2018-09-10T12:03:53.427Z,53.57
2018-09-10T12:04:54.822Z,53.77
2018-09-10T12:05:56.216Z,53.02
2018-09-10T12:06:57.622Z,53.09
2018-09-10T12:07:59.008Z,53.67
2018-09-10T12:09:00.428Z,52.89
2018-09-10T12:10:01.822Z,52.99
2018-09-10T12:11:03.223Z,53.38
2018-09-10T12:12:04.629Z,52.80
2018-09-10T12:13:06.035Z,53.38
2018-09-10T12:14:07.447Z,52.92
2018-09-10T12:15:08.844Z,53.02
2018-09-10T12:16:10.233Z,53.31
2018-09-10T12:17:11.651Z,53.11
2018-09-10T12:18:13.032Z,53.50
2018-09-10T12:19:14.430Z,53.02
2018-09-10T12:20:15.819Z,52.34
2018-09-10T12:21:17.217Z,52.82
2018-09-10T12:22:18.631Z,52.92
2018-09-10T12:23:21.063Z,52.44
2018-09-10T12:24:22.629Z,53.21
2018-09-10T12:25:24.065Z,53.02
2018-09-10T12:26:25.519Z,53.21
2018-09-10T12:27:26.869Z,53.11
2018-09-10T12:28:28.269Z,53.21
2018-09-10T12:29:29.659Z,53.31
2018-09-10T12:30:31.055Z,53.11
2018-09-10T12:31:32.449Z,52.92
2018-09-10T12:32:33.899Z,52.82
2018-09-10T12:33:35.241Z,52.73
2018-09-10T12:34:36.631Z,52.73
2018-09-10T12:35:38.025Z,53.02
2018-09-10T12:36:39.423Z,52.73
2018-09-10T12:37:40.823Z,52.53
2018-09-10T12:38:50.597Z,52.53
2018-09-10T12:39:51.970Z,52.53
2018-09-10T12:40:53.382Z,52.73
2018-09-10T12:41:54.781Z,52.53
2018-09-10T12:42:56.179Z,53.21
2018-09-10T12:43:57.578Z,53.21
2018-09-10T12:44:58.971Z,53.41
2018-09-10T12:46:00.356Z,53.02
2018-09-10T12:47:01.759Z,53.02
2018-09-10T12:48:03.165Z,53.31
2018-09-10T12:49:05.114Z,53.50
2018-09-10T12:50:05.882Z,53.69
2018-09-10T12:51:07.283Z,53.59
2018-09-10T12:52:08.671Z,53.59
2018-09-10T12:53:10.060Z,53.79
2018-09-10T12:54:11.467Z,53.59
2018-09-10T12:55:12.850Z,53.79
2018-09-10T12:56:14.247Z,53.89
2018-09-10T12:57:15.638Z,54.17
2018-09-10T12:58:17.029Z,54.27
2018-09-10T12:59:18.425Z,53.89
2018-09-10T13:00:20.721Z,53.89
2018-09-10T13:01:22.130Z,53.89
2018-09-10T13:02:23.536Z,54.08
2018-09-10T13:03:24.938Z,54.17
2018-09-10T13:04:26.357Z,53.69
2018-09-10T13:05:27.741Z,54.17
2018-09-10T13:06:29.128Z,54.17
2018-09-10T13:07:30.520Z,54.47
2018-09-10T13:08:31.906Z,54.17
2018-09-10T13:09:33.305Z,53.89
2018-09-10T13:10:34.720Z,54.08